sensor_id;sensor_type;location;lat;lon;timestamp;P1;durP1;ratioP1;P2;durP2;ratioP2
76332;SDS011;71254;53.010;6.508;2023-07-28T00:02:03;25.83;;;14.68;;
76332;SDS011;71254;53.010;6.508;2023-07-28T00:04:29;26.85;;;14.50;;
76332;SDS011;71254;53.010;6.508;2023-07-28T00:06:54;24.63;;;13.20;;
76332;SDS011;71254;53.010;6.508;2023-07-28T00:09:20;23.02;;;14.00;;
76332;SDS011;71254;53.010;6.508;2023-07-28T00:11:48;23.30;;;14.13;;
76332;SDS011;71254;53.010;6.508;2023-07-28T00:14:13;23.63;;;14.98;;
76332;SDS011;71254;53.010;6.508;2023-07-28T00:16:39;25.33;;;13.82;;
76332;SDS011;71254;53.010;6.508;2023-07-28T00:19:05;20.38;;;13.50;;
76332;SDS011;71254;53.010;6.508;2023-07-28T00:21:31;22.42;;;13.85;;
76332;SDS011;71254;53.010;6.508;2023-07-28T00:23:56;24.83;;;13.82;;
76332;SDS011;71254;53.010;6.508;2023-07-28T00:26:22;19.83;;;13.30;;
76332;SDS011;71254;53.010;6.508;2023-07-28T00:28:48;22.52;;;14.15;;
76332;SDS011;71254;53.010;6.508;2023-07-28T00:31:13;20.08;;;14.77;;
76332;SDS011;71254;53.010;6.508;2023-07-28T00:33:39;24.40;;;16.80;;
76332;SDS011;71254;53.010;6.508;2023-07-28T00:36:05;25.13;;;16.60;;
76332;SDS011;71254;53.010;6.508;2023-07-28T00:38:30;26.38;;;17.30;;
76332;SDS011;71254;53.010;6.508;2023-07-28T00:40:56;30.60;;;18.90;;
76332;SDS011;71254;53.010;6.508;2023-07-28T00:43:22;30.90;;;19.17;;
76332;SDS011;71254;53.010;6.508;2023-07-28T00:45:48;33.60;;;21.27;;
76332;SDS011;71254;53.010;6.508;2023-07-28T00:48:14;36.17;;;22.23;;
76332;SDS011;71254;53.010;6.508;2023-07-28T00:50:41;33.58;;;21.33;;
76332;SDS011;71254;53.010;6.508;2023-07-28T00:53:09;35.87;;;21.07;;
76332;SDS011;71254;53.010;6.508;2023-07-28T00:55:35;29.33;;;20.65;;
76332;SDS011;71254;53.010;6.508;2023-07-28T00:58:01;34.78;;;22.15;;
76332;SDS011;71254;53.010;6.508;2023-07-28T01:00:27;36.80;;;20.77;;
76332;SDS011;71254;53.010;6.508;2023-07-28T01:02:53;35.55;;;21.45;;
76332;SDS011;71254;53.010;6.508;2023-07-28T01:05:19;34.60;;;21.35;;
76332;SDS011;71254;53.010;6.508;2023-07-28T01:07:55;38.83;;;22.38;;
76332;SDS011;71254;53.010;6.508;2023-07-28T01:10:36;33.78;;;21.40;;
76332;SDS011;71254;53.010;6.508;2023-07-28T01:13:04;33.97;;;21.35;;
76332;SDS011;71254;53.010;6.508;2023-07-28T01:15:29;31.48;;;21.05;;
76332;SDS011;71254;53.010;6.508;2023-07-28T01:17:55;33.17;;;21.13;;
76332;SDS011;71254;53.010;6.508;2023-07-28T01:20:22;31.95;;;21.13;;
76332;SDS011;71254;53.010;6.508;2023-07-28T01:23:07;31.58;;;21.00;;
76332;SDS011;71254;53.010;6.508;2023-07-28T01:25:47;29.45;;;20.23;;
76332;SDS011;71254;53.010;6.508;2023-07-28T01:28:24;31.63;;;20.15;;
76332;SDS011;71254;53.010;6.508;2023-07-28T01:30:51;31.58;;;19.65;;
76332;SDS011;71254;53.010;6.508;2023-07-28T01:33:16;32.80;;;19.50;;
76332;SDS011;71254;53.010;6.508;2023-07-28T01:35:42;27.00;;;17.90;;
76332;SDS011;71254;53.010;6.508;2023-07-28T01:38:08;24.65;;;17.98;;
76332;SDS011;71254;53.010;6.508;2023-07-28T01:40:33;24.35;;;15.88;;
76332;SDS011;71254;53.010;6.508;2023-07-28T01:42:59;25.58;;;16.85;;
76332;SDS011;71254;53.010;6.508;2023-07-28T01:45:24;30.83;;;16.55;;
76332;SDS011;71254;53.010;6.508;2023-07-28T01:47:50;29.13;;;16.67;;
76332;SDS011;71254;53.010;6.508;2023-07-28T01:50:16;28.90;;;17.60;;
76332;SDS011;71254;53.010;6.508;2023-07-28T01:52:41;29.60;;;17.13;;
76332;SDS011;71254;53.010;6.508;2023-07-28T01:55:07;35.13;;;18.48;;
76332;SDS011;71254;53.010;6.508;2023-07-28T01:57:33;30.85;;;18.88;;
76332;SDS011;71254;53.010;6.508;2023-07-28T01:59:59;33.70;;;19.30;;
76332;SDS011;71254;53.010;6.508;2023-07-28T02:02:25;32.38;;;19.23;;
76332;SDS011;71254;53.010;6.508;2023-07-28T02:04:51;36.45;;;19.88;;
76332;SDS011;71254;53.010;6.508;2023-07-28T02:07:16;32.20;;;17.60;;
76332;SDS011;71254;53.010;6.508;2023-07-28T02:09:42;32.17;;;18.55;;
76332;SDS011;71254;53.010;6.508;2023-07-28T02:12:08;31.45;;;19.00;;
76332;SDS011;71254;53.010;6.508;2023-07-28T02:14:33;32.42;;;19.85;;
76332;SDS011;71254;53.010;6.508;2023-07-28T02:16:59;35.35;;;19.13;;
76332;SDS011;71254;53.010;6.508;2023-07-28T02:19:24;36.38;;;20.63;;
76332;SDS011;71254;53.010;6.508;2023-07-28T02:21:50;28.95;;;17.95;;
76332;SDS011;71254;53.010;6.508;2023-07-28T02:24:16;33.95;;;17.92;;
76332;SDS011;71254;53.010;6.508;2023-07-28T02:26:41;31.02;;;17.98;;
76332;SDS011;71254;53.010;6.508;2023-07-28T02:29:07;33.33;;;17.70;;
76332;SDS011;71254;53.010;6.508;2023-07-28T02:31:33;27.08;;;17.00;;
76332;SDS011;71254;53.010;6.508;2023-07-28T02:33:58;29.63;;;16.92;;
76332;SDS011;71254;53.010;6.508;2023-07-28T02:36:24;30.58;;;16.98;;
76332;SDS011;71254;53.010;6.508;2023-07-28T02:38:49;32.47;;;18.33;;
76332;SDS011;71254;53.010;6.508;2023-07-28T02:41:15;32.80;;;17.55;;
76332;SDS011;71254;53.010;6.508;2023-07-28T02:43:41;31.30;;;16.48;;
76332;SDS011;71254;53.010;6.508;2023-07-28T02:46:06;27.55;;;16.77;;
76332;SDS011;71254;53.010;6.508;2023-07-28T02:48:32;26.23;;;16.52;;
76332;SDS011;71254;53.010;6.508;2023-07-28T02:50:57;26.35;;;16.35;;
76332;SDS011;71254;53.010;6.508;2023-07-28T02:53:23;24.92;;;15.05;;
76332;SDS011;71254;53.010;6.508;2023-07-28T02:55:49;27.67;;;16.45;;
76332;SDS011;71254;53.010;6.508;2023-07-28T02:58:14;24.83;;;15.75;;
76332;SDS011;71254;53.010;6.508;2023-07-28T03:00:40;28.17;;;16.40;;
76332;SDS011;71254;53.010;6.508;2023-07-28T03:03:08;23.95;;;15.38;;
76332;SDS011;71254;53.010;6.508;2023-07-28T03:05:35;23.33;;;14.60;;
76332;SDS011;71254;53.010;6.508;2023-07-28T03:08:02;26.65;;;15.88;;
76332;SDS011;71254;53.010;6.508;2023-07-28T03:10:27;22.23;;;15.40;;
76332;SDS011;71254;53.010;6.508;2023-07-28T03:12:53;22.65;;;14.73;;
76332;SDS011;71254;53.010;6.508;2023-07-28T03:15:19;19.45;;;13.18;;
76332;SDS011;71254;53.010;6.508;2023-07-28T03:17:47;23.13;;;14.15;;
76332;SDS011;71254;53.010;6.508;2023-07-28T03:20:13;25.05;;;15.90;;
76332;SDS011;71254;53.010;6.508;2023-07-28T03:22:38;25.73;;;15.25;;
76332;SDS011;71254;53.010;6.508;2023-07-28T03:25:04;30.83;;;17.05;;
76332;SDS011;71254;53.010;6.508;2023-07-28T03:27:30;23.52;;;14.15;;
76332;SDS011;71254;53.010;6.508;2023-07-28T03:29:56;26.42;;;14.38;;
76332;SDS011;71254;53.010;6.508;2023-07-28T03:32:21;27.80;;;15.65;;
76332;SDS011;71254;53.010;6.508;2023-07-28T03:34:47;24.95;;;14.52;;
76332;SDS011;71254;53.010;6.508;2023-07-28T03:37:12;26.83;;;15.20;;
76332;SDS011;71254;53.010;6.508;2023-07-28T03:39:38;28.00;;;14.30;;
76332;SDS011;71254;53.010;6.508;2023-07-28T03:42:04;22.58;;;15.00;;
76332;SDS011;71254;53.010;6.508;2023-07-28T03:44:29;24.65;;;15.10;;
76332;SDS011;71254;53.010;6.508;2023-07-28T03:46:55;18.75;;;13.57;;
76332;SDS011;71254;53.010;6.508;2023-07-28T03:49:21;25.95;;;14.65;;
76332;SDS011;71254;53.010;6.508;2023-07-28T03:51:47;21.90;;;14.13;;
76332;SDS011;71254;53.010;6.508;2023-07-28T03:54:12;22.08;;;13.57;;
76332;SDS011;71254;53.010;6.508;2023-07-28T03:56:38;29.33;;;13.88;;
76332;SDS011;71254;53.010;6.508;2023-07-28T03:59:03;26.98;;;14.30;;
76332;SDS011;71254;53.010;6.508;2023-07-28T04:01:29;22.13;;;15.35;;
76332;SDS011;71254;53.010;6.508;2023-07-28T04:03:55;26.77;;;15.93;;
76332;SDS011;71254;53.010;6.508;2023-07-28T04:06:33;22.00;;;13.70;;
76332;SDS011;71254;53.010;6.508;2023-07-28T04:09:15;20.38;;;14.20;;
76332;SDS011;71254;53.010;6.508;2023-07-28T04:11:42;24.67;;;13.90;;
76332;SDS011;71254;53.010;6.508;2023-07-28T04:14:08;23.00;;;14.45;;
76332;SDS011;71254;53.010;6.508;2023-07-28T04:16:34;24.45;;;14.48;;
76332;SDS011;71254;53.010;6.508;2023-07-28T04:18:59;24.08;;;14.77;;
76332;SDS011;71254;53.010;6.508;2023-07-28T04:21:25;24.23;;;15.15;;
76332;SDS011;71254;53.010;6.508;2023-07-28T04:23:51;26.60;;;14.85;;
76332;SDS011;71254;53.010;6.508;2023-07-28T04:26:17;23.45;;;14.18;;
76332;SDS011;71254;53.010;6.508;2023-07-28T04:28:43;25.17;;;14.48;;
76332;SDS011;71254;53.010;6.508;2023-07-28T04:31:09;26.90;;;15.45;;
76332;SDS011;71254;53.010;6.508;2023-07-28T04:33:35;20.33;;;13.77;;
76332;SDS011;71254;53.010;6.508;2023-07-28T04:36:04;19.83;;;13.35;;
76332;SDS011;71254;53.010;6.508;2023-07-28T04:38:30;28.60;;;15.77;;
76332;SDS011;71254;53.010;6.508;2023-07-28T04:40:56;24.50;;;15.10;;
76332;SDS011;71254;53.010;6.508;2023-07-28T04:43:21;26.38;;;14.45;;
76332;SDS011;71254;53.010;6.508;2023-07-28T04:45:47;25.90;;;14.32;;
76332;SDS011;71254;53.010;6.508;2023-07-28T04:48:12;26.33;;;15.05;;
76332;SDS011;71254;53.010;6.508;2023-07-28T04:50:38;20.90;;;14.13;;
76332;SDS011;71254;53.010;6.508;2023-07-28T04:53:03;27.17;;;15.00;;
76332;SDS011;71254;53.010;6.508;2023-07-28T04:55:29;22.13;;;13.98;;
76332;SDS011;71254;53.010;6.508;2023-07-28T04:57:55;22.52;;;13.63;;
76332;SDS011;71254;53.010;6.508;2023-07-28T05:00:21;22.15;;;14.93;;
76332;SDS011;71254;53.010;6.508;2023-07-28T05:02:48;22.77;;;14.18;;
76332;SDS011;71254;53.010;6.508;2023-07-28T05:05:13;24.10;;;14.00;;
76332;SDS011;71254;53.010;6.508;2023-07-28T05:07:39;22.88;;;13.63;;
76332;SDS011;71254;53.010;6.508;2023-07-28T05:10:05;20.48;;;13.32;;
76332;SDS011;71254;53.010;6.508;2023-07-28T05:12:30;21.85;;;13.23;;
76332;SDS011;71254;53.010;6.508;2023-07-28T05:14:56;20.13;;;13.57;;
76332;SDS011;71254;53.010;6.508;2023-07-28T05:17:22;23.77;;;14.32;;
76332;SDS011;71254;53.010;6.508;2023-07-28T05:19:49;20.85;;;13.27;;
76332;SDS011;71254;53.010;6.508;2023-07-28T05:22:14;19.00;;;13.23;;
76332;SDS011;71254;53.010;6.508;2023-07-28T05:24:40;18.02;;;13.48;;
76332;SDS011;71254;53.010;6.508;2023-07-28T05:27:06;19.20;;;13.20;;
76332;SDS011;71254;53.010;6.508;2023-07-28T05:29:31;22.58;;;14.00;;
76332;SDS011;71254;53.010;6.508;2023-07-28T05:32:00;17.60;;;12.40;;
76332;SDS011;71254;53.010;6.508;2023-07-28T05:34:26;16.50;;;12.88;;
76332;SDS011;71254;53.010;6.508;2023-07-28T05:36:52;18.83;;;13.15;;
76332;SDS011;71254;53.010;6.508;2023-07-28T05:39:18;19.38;;;12.25;;
76332;SDS011;71254;53.010;6.508;2023-07-28T05:41:44;16.13;;;11.02;;
76332;SDS011;71254;53.010;6.508;2023-07-28T05:44:09;16.63;;;11.05;;
76332;SDS011;71254;53.010;6.508;2023-07-28T05:46:35;22.10;;;11.68;;
76332;SDS011;71254;53.010;6.508;2023-07-28T05:49:00;17.90;;;11.68;;
76332;SDS011;71254;53.010;6.508;2023-07-28T05:51:26;20.17;;;11.52;;
76332;SDS011;71254;53.010;6.508;2023-07-28T05:53:52;18.42;;;10.63;;
76332;SDS011;71254;53.010;6.508;2023-07-28T05:56:19;17.40;;;11.05;;
76332;SDS011;71254;53.010;6.508;2023-07-28T05:58:46;16.02;;;10.43;;
76332;SDS011;71254;53.010;6.508;2023-07-28T06:01:12;13.63;;;10.85;;
76332;SDS011;71254;53.010;6.508;2023-07-28T06:03:37;18.75;;;10.88;;
76332;SDS011;71254;53.010;6.508;2023-07-28T06:06:03;16.63;;;11.65;;
76332;SDS011;71254;53.010;6.508;2023-07-28T06:08:29;15.45;;;10.68;;
76332;SDS011;71254;53.010;6.508;2023-07-28T06:10:54;16.48;;;11.48;;
76332;SDS011;71254;53.010;6.508;2023-07-28T06:13:20;20.15;;;10.00;;
76332;SDS011;71254;53.010;6.508;2023-07-28T06:15:46;16.17;;;10.93;;
76332;SDS011;71254;53.010;6.508;2023-07-28T06:18:12;18.50;;;11.40;;
76332;SDS011;71254;53.010;6.508;2023-07-28T06:20:37;16.45;;;10.32;;
76332;SDS011;71254;53.010;6.508;2023-07-28T06:23:06;16.02;;;9.82;;
76332;SDS011;71254;53.010;6.508;2023-07-28T06:25:31;15.98;;;9.77;;
76332;SDS011;71254;53.010;6.508;2023-07-28T06:27:57;17.98;;;9.85;;
76332;SDS011;71254;53.010;6.508;2023-07-28T06:30:24;17.20;;;10.02;;
76332;SDS011;71254;53.010;6.508;2023-07-28T06:32:50;12.32;;;9.68;;
76332;SDS011;71254;53.010;6.508;2023-07-28T06:35:16;14.70;;;9.93;;
76332;SDS011;71254;53.010;6.508;2023-07-28T06:37:41;15.45;;;10.07;;
76332;SDS011;71254;53.010;6.508;2023-07-28T06:40:07;12.85;;;9.77;;
76332;SDS011;71254;53.010;6.508;2023-07-28T06:42:34;14.60;;;9.38;;
76332;SDS011;71254;53.010;6.508;2023-07-28T06:45:02;12.45;;;9.70;;
76332;SDS011;71254;53.010;6.508;2023-07-28T06:47:28;15.63;;;10.15;;
76332;SDS011;71254;53.010;6.508;2023-07-28T06:49:54;13.30;;;8.88;;
76332;SDS011;71254;53.010;6.508;2023-07-28T06:52:19;9.25;;;7.60;;
76332;SDS011;71254;53.010;6.508;2023-07-28T06:54:45;8.40;;;7.18;;
76332;SDS011;71254;53.010;6.508;2023-07-28T06:57:12;8.75;;;6.97;;
76332;SDS011;71254;53.010;6.508;2023-07-28T06:59:38;9.95;;;6.93;;
76332;SDS011;71254;53.010;6.508;2023-07-28T07:02:03;14.43;;;6.85;;
76332;SDS011;71254;53.010;6.508;2023-07-28T07:04:30;8.23;;;6.82;;
76332;SDS011;71254;53.010;6.508;2023-07-28T07:06:56;7.60;;;6.72;;
76332;SDS011;71254;53.010;6.508;2023-07-28T07:09:21;7.50;;;6.25;;
76332;SDS011;71254;53.010;6.508;2023-07-28T07:11:47;11.00;;;7.45;;
76332;SDS011;71254;53.010;6.508;2023-07-28T07:14:12;7.68;;;6.57;;
76332;SDS011;71254;53.010;6.508;2023-07-28T07:16:39;11.20;;;7.25;;
76332;SDS011;71254;53.010;6.508;2023-07-28T07:19:05;10.32;;;6.97;;
76332;SDS011;71254;53.010;6.508;2023-07-28T07:21:31;9.88;;;7.30;;
76332;SDS011;71254;53.010;6.508;2023-07-28T07:23:56;10.52;;;7.10;;
76332;SDS011;71254;53.010;6.508;2023-07-28T07:26:22;8.13;;;6.55;;
76332;SDS011;71254;53.010;6.508;2023-07-28T07:28:47;11.43;;;7.18;;
76332;SDS011;71254;53.010;6.508;2023-07-28T07:31:13;9.35;;;6.82;;
76332;SDS011;71254;53.010;6.508;2023-07-28T07:33:40;7.35;;;6.38;;
76332;SDS011;71254;53.010;6.508;2023-07-28T07:36:11;8.65;;;6.32;;
76332;SDS011;71254;53.010;6.508;2023-07-28T07:38:38;7.25;;;6.40;;
76332;SDS011;71254;53.010;6.508;2023-07-28T07:41:05;7.05;;;5.75;;
76332;SDS011;71254;53.010;6.508;2023-07-28T07:43:31;7.18;;;6.25;;
76332;SDS011;71254;53.010;6.508;2023-07-28T07:45:57;6.72;;;5.40;;
76332;SDS011;71254;53.010;6.508;2023-07-28T07:48:23;9.23;;;5.97;;
76332;SDS011;71254;53.010;6.508;2023-07-28T07:50:49;5.55;;;4.60;;
76332;SDS011;71254;53.010;6.508;2023-07-28T07:53:15;6.97;;;4.82;;
76332;SDS011;71254;53.010;6.508;2023-07-28T07:55:41;6.95;;;4.88;;
76332;SDS011;71254;53.010;6.508;2023-07-28T07:58:07;7.57;;;4.93;;
76332;SDS011;71254;53.010;6.508;2023-07-28T08:00:32;8.45;;;5.18;;
76332;SDS011;71254;53.010;6.508;2023-07-28T08:02:59;7.10;;;4.70;;
76332;SDS011;71254;53.010;6.508;2023-07-28T08:05:24;7.10;;;4.60;;
76332;SDS011;71254;53.010;6.508;2023-07-28T08:07:50;5.80;;;5.20;;
76332;SDS011;71254;53.010;6.508;2023-07-28T08:10:16;5.60;;;5.00;;
76332;SDS011;71254;53.010;6.508;2023-07-28T08:12:42;5.60;;;4.95;;
76332;SDS011;71254;53.010;6.508;2023-07-28T08:15:09;5.78;;;4.65;;
76332;SDS011;71254;53.010;6.508;2023-07-28T08:17:35;5.93;;;5.03;;
76332;SDS011;71254;53.010;6.508;2023-07-28T08:20:01;5.65;;;4.88;;
76332;SDS011;71254;53.010;6.508;2023-07-28T08:22:28;6.97;;;4.40;;
76332;SDS011;71254;53.010;6.508;2023-07-28T08:24:54;5.30;;;4.80;;
76332;SDS011;71254;53.010;6.508;2023-07-28T08:27:19;5.45;;;4.75;;
76332;SDS011;71254;53.010;6.508;2023-07-28T08:29:45;5.05;;;4.55;;
76332;SDS011;71254;53.010;6.508;2023-07-28T08:32:11;4.68;;;4.28;;
76332;SDS011;71254;53.010;6.508;2023-07-28T08:34:36;4.80;;;4.30;;
76332;SDS011;71254;53.010;6.508;2023-07-28T08:37:02;5.47;;;4.20;;
76332;SDS011;71254;53.010;6.508;2023-07-28T08:39:27;6.63;;;4.00;;
76332;SDS011;71254;53.010;6.508;2023-07-28T08:41:57;6.63;;;4.43;;
76332;SDS011;71254;53.010;6.508;2023-07-28T08:44:24;4.10;;;3.70;;
76332;SDS011;71254;53.010;6.508;2023-07-28T08:46:49;4.18;;;3.78;;
76332;SDS011;71254;53.010;6.508;2023-07-28T08:49:15;4.78;;;3.85;;
76332;SDS011;71254;53.010;6.508;2023-07-28T08:51:41;3.60;;;3.30;;
76332;SDS011;71254;53.010;6.508;2023-07-28T08:54:07;3.78;;;3.45;;
76332;SDS011;71254;53.010;6.508;2023-07-28T08:56:33;7.05;;;4.30;;
76332;SDS011;71254;53.010;6.508;2023-07-28T08:58:59;4.53;;;3.78;;
76332;SDS011;71254;53.010;6.508;2023-07-28T09:01:27;4.25;;;3.70;;
76332;SDS011;71254;53.010;6.508;2023-07-28T09:03:53;5.28;;;3.40;;
76332;SDS011;71254;53.010;6.508;2023-07-28T09:06:19;6.25;;;3.47;;
76332;SDS011;71254;53.010;6.508;2023-07-28T09:08:55;4.43;;;3.70;;
76332;SDS011;71254;53.010;6.508;2023-07-28T09:11:22;6.35;;;3.53;;
76332;SDS011;71254;53.010;6.508;2023-07-28T09:13:52;3.70;;;3.40;;
76332;SDS011;71254;53.010;6.508;2023-07-28T09:16:19;5.35;;;3.70;;
76332;SDS011;71254;53.010;6.508;2023-07-28T09:18:45;5.10;;;3.80;;
76332;SDS011;71254;53.010;6.508;2023-07-28T09:21:18;4.80;;;3.67;;
76332;SDS011;71254;53.010;6.508;2023-07-28T09:23:46;7.40;;;4.53;;
76332;SDS011;71254;53.010;6.508;2023-07-28T09:26:13;4.78;;;4.22;;
76332;SDS011;71254;53.010;6.508;2023-07-28T09:28:40;4.32;;;4.03;;
76332;SDS011;71254;53.010;6.508;2023-07-28T09:31:06;5.50;;;4.38;;
76332;SDS011;71254;53.010;6.508;2023-07-28T09:33:34;5.03;;;3.80;;
76332;SDS011;71254;53.010;6.508;2023-07-28T09:36:07;4.95;;;4.55;;
76332;SDS011;71254;53.010;6.508;2023-07-28T09:38:38;6.43;;;4.40;;
76332;SDS011;71254;53.010;6.508;2023-07-28T09:41:06;4.90;;;4.50;;
76332;SDS011;71254;53.010;6.508;2023-07-28T09:43:39;4.20;;;3.80;;
76332;SDS011;71254;53.010;6.508;2023-07-28T09:46:08;5.13;;;4.72;;
76332;SDS011;71254;53.010;6.508;2023-07-28T09:48:37;5.80;;;4.68;;
76332;SDS011;71254;53.010;6.508;2023-07-28T09:51:08;5.45;;;4.95;;
76332;SDS011;71254;53.010;6.508;2023-07-28T09:53:46;6.93;;;4.35;;
76332;SDS011;71254;53.010;6.508;2023-07-28T09:56:18;4.70;;;4.40;;
76332;SDS011;71254;53.010;6.508;2023-07-28T09:58:51;5.22;;;4.72;;
76332;SDS011;71254;53.010;6.508;2023-07-28T10:01:18;6.40;;;5.38;;
76332;SDS011;71254;53.010;6.508;2023-07-28T10:03:46;5.80;;;5.25;;
76332;SDS011;71254;53.010;6.508;2023-07-28T10:06:12;6.22;;;5.28;;
76332;SDS011;71254;53.010;6.508;2023-07-28T10:08:39;5.70;;;5.20;;
76332;SDS011;71254;53.010;6.508;2023-07-28T10:11:05;5.43;;;5.00;;
76332;SDS011;71254;53.010;6.508;2023-07-28T10:13:41;5.07;;;4.43;;
76332;SDS011;71254;53.010;6.508;2023-07-28T10:16:08;4.75;;;4.28;;
76332;SDS011;71254;53.010;6.508;2023-07-28T10:18:34;4.38;;;3.58;;
76332;SDS011;71254;53.010;6.508;2023-07-28T10:21:19;4.85;;;3.75;;
76332;SDS011;71254;53.010;6.508;2023-07-28T10:23:45;5.20;;;3.92;;
76332;SDS011;71254;53.010;6.508;2023-07-28T10:26:18;4.60;;;4.20;;
76332;SDS011;71254;53.010;6.508;2023-07-28T10:29:12;5.25;;;3.85;;
76332;SDS011;71254;53.010;6.508;2023-07-28T10:31:52;4.03;;;3.70;;
76332;SDS011;71254;53.010;6.508;2023-07-28T10:34:20;4.90;;;4.47;;
76332;SDS011;71254;53.010;6.508;2023-07-28T10:36:46;4.95;;;4.57;;
76332;SDS011;71254;53.010;6.508;2023-07-28T10:39:20;4.55;;;4.10;;
76332;SDS011;71254;53.010;6.508;2023-07-28T10:42:05;4.47;;;3.97;;
76332;SDS011;71254;53.010;6.508;2023-07-28T10:44:33;4.32;;;3.92;;
76332;SDS011;71254;53.010;6.508;2023-07-28T10:47:00;4.00;;;3.60;;
76332;SDS011;71254;53.010;6.508;2023-07-28T10:49:26;3.80;;;3.15;;
76332;SDS011;71254;53.010;6.508;2023-07-28T10:51:53;4.38;;;3.53;;
76332;SDS011;71254;53.010;6.508;2023-07-28T10:54:19;4.35;;;3.00;;
76332;SDS011;71254;53.010;6.508;2023-07-28T10:56:48;3.25;;;2.72;;
76332;SDS011;71254;53.010;6.508;2023-07-28T10:59:14;3.58;;;2.88;;
76332;SDS011;71254;53.010;6.508;2023-07-28T11:01:40;5.80;;;3.90;;
76332;SDS011;71254;53.010;6.508;2023-07-28T11:04:17;4.20;;;3.80;;
76332;SDS011;71254;53.010;6.508;2023-07-28T11:06:45;4.03;;;3.63;;
76332;SDS011;71254;53.010;6.508;2023-07-28T11:09:13;3.40;;;3.10;;
76332;SDS011;71254;53.010;6.508;2023-07-28T11:11:41;3.30;;;3.00;;
76332;SDS011;71254;53.010;6.508;2023-07-28T11:14:08;2.88;;;2.60;;
76332;SDS011;71254;53.010;6.508;2023-07-28T11:16:40;5.55;;;2.90;;
76332;SDS011;71254;53.010;6.508;2023-07-28T11:19:07;3.42;;;2.90;;
76332;SDS011;71254;53.010;6.508;2023-07-28T11:21:40;4.00;;;3.15;;
76332;SDS011;71254;53.010;6.508;2023-07-28T11:24:06;3.15;;;2.85;;
76332;SDS011;71254;53.010;6.508;2023-07-28T11:26:39;3.65;;;3.00;;
76332;SDS011;71254;53.010;6.508;2023-07-28T11:29:05;4.47;;;3.72;;
76332;SDS011;71254;53.010;6.508;2023-07-28T11:31:31;3.63;;;3.30;;
76332;SDS011;71254;53.010;6.508;2023-07-28T11:33:58;4.85;;;3.40;;
76332;SDS011;71254;53.010;6.508;2023-07-28T11:36:27;3.83;;;3.38;;
76332;SDS011;71254;53.010;6.508;2023-07-28T11:38:54;4.55;;;3.50;;
76332;SDS011;71254;53.010;6.508;2023-07-28T11:41:22;4.35;;;3.88;;
76332;SDS011;71254;53.010;6.508;2023-07-28T11:43:49;4.10;;;3.80;;
76332;SDS011;71254;53.010;6.508;2023-07-28T11:49:17;4.45;;;3.72;;
76332;SDS011;71254;53.010;6.508;2023-07-28T11:51:50;4.40;;;4.10;;
76332;SDS011;71254;53.010;6.508;2023-07-28T11:54:20;6.22;;;4.65;;
76332;SDS011;71254;53.010;6.508;2023-07-28T11:56:48;6.00;;;4.68;;
76332;SDS011;71254;53.010;6.508;2023-07-28T11:59:15;4.47;;;4.18;;
76332;SDS011;71254;53.010;6.508;2023-07-28T12:02:00;6.10;;;4.88;;
76332;SDS011;71254;53.010;6.508;2023-07-28T12:04:28;5.88;;;5.40;;
76332;SDS011;71254;53.010;6.508;2023-07-28T12:07:02;5.40;;;5.03;;
76332;SDS011;71254;53.010;6.508;2023-07-28T12:12:17;5.70;;;5.30;;
76332;SDS011;71254;53.010;6.508;2023-07-28T12:14:44;5.30;;;4.80;;
76332;SDS011;71254;53.010;6.508;2023-07-28T12:17:13;7.10;;;6.35;;
76332;SDS011;71254;53.010;6.508;2023-07-28T12:19:54;7.85;;;6.40;;
76332;SDS011;71254;53.010;6.508;2023-07-28T12:22:31;6.72;;;6.20;;
76332;SDS011;71254;53.010;6.508;2023-07-28T12:24:57;8.95;;;5.10;;
76332;SDS011;71254;53.010;6.508;2023-07-28T12:27:23;4.88;;;4.43;;
76332;SDS011;71254;53.010;6.508;2023-07-28T12:29:50;5.85;;;4.70;;
76332;SDS011;71254;53.010;6.508;2023-07-28T12:32:16;5.07;;;4.68;;
76332;SDS011;71254;53.010;6.508;2023-07-28T12:34:42;6.28;;;5.18;;
76332;SDS011;71254;53.010;6.508;2023-07-28T12:37:07;5.50;;;5.00;;
76332;SDS011;71254;53.010;6.508;2023-07-28T12:39:36;7.60;;;6.15;;
76332;SDS011;71254;53.010;6.508;2023-07-28T12:42:06;6.28;;;5.68;;
76332;SDS011;71254;53.010;6.508;2023-07-28T12:44:33;5.43;;;4.93;;
76332;SDS011;71254;53.010;6.508;2023-07-28T12:46:58;5.25;;;4.80;;
76332;SDS011;71254;53.010;6.508;2023-07-28T12:49:24;5.35;;;4.90;;
76332;SDS011;71254;53.010;6.508;2023-07-28T12:51:50;7.10;;;5.82;;
76332;SDS011;71254;53.010;6.508;2023-07-28T12:54:16;6.78;;;6.18;;
76332;SDS011;71254;53.010;6.508;2023-07-28T12:56:42;6.38;;;5.70;;
76332;SDS011;71254;53.010;6.508;2023-07-28T12:59:08;6.22;;;5.63;;
76332;SDS011;71254;53.010;6.508;2023-07-28T13:01:35;4.68;;;3.90;;
76332;SDS011;71254;53.010;6.508;2023-07-28T13:04:02;4.07;;;3.63;;
76332;SDS011;71254;53.010;6.508;2023-07-28T13:06:28;4.32;;;3.65;;
76332;SDS011;71254;53.010;6.508;2023-07-28T13:08:53;4.50;;;3.80;;
76332;SDS011;71254;53.010;6.508;2023-07-28T13:11:19;4.45;;;3.33;;
76332;SDS011;71254;53.010;6.508;2023-07-28T13:13:44;4.15;;;3.65;;
76332;SDS011;71254;53.010;6.508;2023-07-28T13:16:10;4.97;;;3.80;;
76332;SDS011;71254;53.010;6.508;2023-07-28T13:18:36;3.30;;;3.05;;
76332;SDS011;71254;53.010;6.508;2023-07-28T13:21:01;3.83;;;3.30;;
76332;SDS011;71254;53.010;6.508;2023-07-28T13:23:27;3.58;;;3.30;;
76332;SDS011;71254;53.010;6.508;2023-07-28T13:25:53;4.03;;;2.85;;
76332;SDS011;71254;53.010;6.508;2023-07-28T13:28:18;3.67;;;3.38;;
76332;SDS011;71254;53.010;6.508;2023-07-28T13:30:44;3.83;;;3.53;;
76332;SDS011;71254;53.010;6.508;2023-07-28T13:33:10;3.95;;;3.60;;
76332;SDS011;71254;53.010;6.508;2023-07-28T13:35:35;4.10;;;3.80;;
76332;SDS011;71254;53.010;6.508;2023-07-28T13:38:01;4.38;;;3.97;;
76332;SDS011;71254;53.010;6.508;2023-07-28T13:40:27;5.00;;;4.30;;
76332;SDS011;71254;53.010;6.508;2023-07-28T13:42:52;5.72;;;5.13;;
76332;SDS011;71254;53.010;6.508;2023-07-28T13:45:18;5.35;;;4.85;;
76332;SDS011;71254;53.010;6.508;2023-07-28T13:47:43;5.47;;;5.00;;
76332;SDS011;71254;53.010;6.508;2023-07-28T13:50:09;5.40;;;4.90;;
76332;SDS011;71254;53.010;6.508;2023-07-28T13:52:35;5.50;;;5.00;;
76332;SDS011;71254;53.010;6.508;2023-07-28T13:55:00;5.30;;;4.80;;
76332;SDS011;71254;53.010;6.508;2023-07-28T13:57:26;4.38;;;3.97;;
76332;SDS011;71254;53.010;6.508;2023-07-28T13:59:51;3.35;;;3.08;;
76332;SDS011;71254;53.010;6.508;2023-07-28T14:02:17;4.88;;;4.40;;
76332;SDS011;71254;53.010;6.508;2023-07-28T14:04:43;5.30;;;4.90;;
76332;SDS011;71254;53.010;6.508;2023-07-28T14:07:09;4.40;;;4.00;;
76332;SDS011;71254;53.010;6.508;2023-07-28T14:09:35;4.93;;;4.53;;
76332;SDS011;71254;53.010;6.508;2023-07-28T14:12:02;5.10;;;4.60;;
76332;SDS011;71254;53.010;6.508;2023-07-28T14:14:28;4.97;;;4.30;;
76332;SDS011;71254;53.010;6.508;2023-07-28T14:16:54;5.60;;;5.10;;
76332;SDS011;71254;53.010;6.508;2023-07-28T14:19:19;4.93;;;4.53;;
76332;SDS011;71254;53.010;6.508;2023-07-28T14:21:45;4.80;;;4.40;;
76332;SDS011;71254;53.010;6.508;2023-07-28T14:24:11;4.53;;;4.13;;
76332;SDS011;71254;53.010;6.508;2023-07-28T14:26:36;5.00;;;4.10;;
76332;SDS011;71254;53.010;6.508;2023-07-28T14:29:03;5.05;;;4.65;;
76332;SDS011;71254;53.010;6.508;2023-07-28T14:31:29;5.80;;;5.22;;
76332;SDS011;71254;53.010;6.508;2023-07-28T14:33:54;7.88;;;7.28;;
76332;SDS011;71254;53.010;6.508;2023-07-28T14:36:20;7.15;;;6.57;;
76332;SDS011;71254;53.010;6.508;2023-07-28T14:38:46;6.47;;;5.97;;
76332;SDS011;71254;53.010;6.508;2023-07-28T14:41:11;7.05;;;5.55;;